createdAt,value
2023-03-22T00:02:26.176Z,9.93
2023-03-22T00:05:17.118Z,9.97
2023-03-22T00:08:08.358Z,10.47
2023-03-22T00:10:57.702Z,10.23
2023-03-22T00:13:47.117Z,10.23
2023-03-22T00:16:36.467Z,10.00
2023-03-22T00:19:26.707Z,9.90
2023-03-22T00:22:17.390Z,10.30
2023-03-22T00:25:08.184Z,10.40
2023-03-22T00:27:57.447Z,10.17
2023-03-22T00:30:54.573Z,10.00
2023-03-22T00:33:43.875Z,10.10
2023-03-22T00:36:33.159Z,10.20
2023-03-22T00:39:23.822Z,10.17
2023-03-22T00:42:13.128Z,9.83
2023-03-22T00:45:02.528Z,9.80
2023-03-22T00:47:51.888Z,10.17
2023-03-22T00:50:42.066Z,9.73
2023-03-22T00:53:32.946Z,10.07
2023-03-22T00:56:25.531Z,10.07
2023-03-22T00:59:23.583Z,9.70
2023-03-22T01:02:14.360Z,9.70
2023-03-22T01:05:06.687Z,9.87
2023-03-22T01:07:56.869Z,9.97
2023-03-22T01:10:46.557Z,9.60
2023-03-22T01:13:38.876Z,9.60
2023-03-22T01:16:28.208Z,10.00
2023-03-22T01:19:17.666Z,9.50
2023-03-22T01:22:08.458Z,9.47
2023-03-22T01:24:58.243Z,9.57
2023-03-22T01:27:47.987Z,9.63
2023-03-22T01:30:41.398Z,9.77
2023-03-22T01:33:31.169Z,9.90
2023-03-22T01:36:20.913Z,10.00
2023-03-22T01:39:10.476Z,9.47
2023-03-22T01:42:00.924Z,9.50
2023-03-22T01:45:41.227Z,9.57
2023-03-22T01:48:34.461Z,9.40
2023-03-22T01:51:26.124Z,9.70
2023-03-22T01:54:32.966Z,10.10
2023-03-22T01:57:25.596Z,9.60
2023-03-22T02:00:18.862Z,10.00
2023-03-22T02:03:40.695Z,9.63
2023-03-22T02:06:32.417Z,9.40
2023-03-22T02:09:30.443Z,9.80
2023-03-22T02:12:33.039Z,9.30
2023-03-22T02:15:35.048Z,9.50
2023-03-22T02:19:02.003Z,9.83
2023-03-22T02:22:23.206Z,9.50
2023-03-22T02:25:38.707Z,9.67
2023-03-22T02:28:44.210Z,9.47
2023-03-22T02:32:13.255Z,9.40
2023-03-22T02:35:44.270Z,10.10
2023-03-22T02:39:17.520Z,9.50
2023-03-22T02:42:41.599Z,9.53
2023-03-22T02:45:36.038Z,9.63
2023-03-22T02:48:31.147Z,9.90
2023-03-22T02:51:26.110Z,9.53
2023-03-22T02:54:22.582Z,9.60
2023-03-22T02:57:16.843Z,9.70
2023-03-22T03:00:12.382Z,10.00
2023-03-22T03:03:11.464Z,9.70
2023-03-22T03:06:08.449Z,10.00
2023-03-22T03:09:02.651Z,9.40
2023-03-22T03:11:55.388Z,9.50
2023-03-22T03:14:44.795Z,9.50
2023-03-22T03:17:53.359Z,9.60
2023-03-22T03:20:55.718Z,9.70
2023-03-22T03:23:52.317Z,9.70
2023-03-22T03:26:50.756Z,9.43
2023-03-22T03:29:46.403Z,9.70
2023-03-22T03:32:42.060Z,9.70
2023-03-22T03:35:38.388Z,10.00
2023-03-22T03:38:30.981Z,10.00
2023-03-22T03:41:25.956Z,9.77
2023-03-22T03:44:16.328Z,9.60
2023-03-22T03:47:09.877Z,9.90
2023-03-22T03:49:59.429Z,10.00
2023-03-22T03:52:48.824Z,9.67
2023-03-22T03:55:38.350Z,9.93
2023-03-22T03:58:30.497Z,10.20
2023-03-22T04:01:20.911Z,9.90
2023-03-22T04:04:34.811Z,10.20
2023-03-22T04:07:24.626Z,9.87
2023-03-22T04:10:14.067Z,9.93
2023-03-22T04:13:03.379Z,10.30
2023-03-22T04:15:57.482Z,10.27
2023-03-22T04:18:47.187Z,10.03
2023-03-22T04:21:38.691Z,10.20
2023-03-22T04:24:29.433Z,10.00
2023-03-22T04:27:20.069Z,10.63
2023-03-22T04:30:30.992Z,10.50
2023-03-22T04:33:40.354Z,9.60
2023-03-22T04:36:40.037Z,10.10
2023-03-22T04:39:38.745Z,10.20
2023-03-22T04:42:49.149Z,10.30
2023-03-22T04:45:47.350Z,10.57
2023-03-22T04:48:41.911Z,10.23
2023-03-22T04:51:33.018Z,10.50
2023-03-22T04:54:38.181Z,10.47
2023-03-22T04:57:28.676Z,10.60
2023-03-22T05:00:21.744Z,9.90
2023-03-22T05:03:11.597Z,10.10
2023-03-22T05:06:09.791Z,10.13
2023-03-22T05:09:16.393Z,10.03
2023-03-22T05:12:07.645Z,10.27
2023-03-22T05:15:11.132Z,10.10
2023-03-22T05:18:01.608Z,9.97
2023-03-22T05:20:51.171Z,10.30
2023-03-22T05:23:47.114Z,10.13
2023-03-22T05:26:38.078Z,10.00
2023-03-22T05:29:29.215Z,10.20
2023-03-22T05:32:30.126Z,10.00
2023-03-22T05:35:19.631Z,9.90
2023-03-22T05:38:14.517Z,10.43
2023-03-22T05:41:08.828Z,10.47
2023-03-22T05:43:58.927Z,10.50
2023-03-22T05:46:49.894Z,10.37
2023-03-22T05:50:01.698Z,10.50
2023-03-22T05:52:53.360Z,10.33
2023-03-22T05:55:53.102Z,10.40
2023-03-22T05:58:43.169Z,10.37
2023-03-22T06:01:35.528Z,10.33
2023-03-22T06:04:35.999Z,10.70
2023-03-22T06:07:31.596Z,10.23
2023-03-22T06:10:32.951Z,10.10
2023-03-22T06:13:23.119Z,10.67
2023-03-22T06:16:13.022Z,10.30
2023-03-22T06:19:04.681Z,10.40
2023-03-22T06:21:55.902Z,10.20
2023-03-22T06:24:48.202Z,10.33
2023-03-22T06:27:42.425Z,10.10
2023-03-22T06:30:31.962Z,10.83
2023-03-22T06:33:47.385Z,10.50
2023-03-22T06:36:48.879Z,10.20
2023-03-22T06:39:59.795Z,10.67
2023-03-22T06:42:49.549Z,10.30
2023-03-22T06:45:41.146Z,10.33
2023-03-22T06:48:30.585Z,10.57
2023-03-22T06:51:24.855Z,10.60
2023-03-22T06:54:16.038Z,10.40
2023-03-22T06:57:06.834Z,10.63
2023-03-22T06:59:56.238Z,10.13
2023-03-22T07:02:45.583Z,10.50
2023-03-22T07:05:50.301Z,10.50
2023-03-22T07:08:40.154Z,9.97
2023-03-22T07:11:31.085Z,10.07
2023-03-22T07:14:24.092Z,10.43
2023-03-22T07:17:31.241Z,10.90
2023-03-22T07:20:21.390Z,10.57
2023-03-22T07:23:11.841Z,10.23
2023-03-22T07:26:09.038Z,10.07
2023-03-22T07:29:01.454Z,9.90
2023-03-22T07:31:55.756Z,10.37
2023-03-22T07:34:49.257Z,10.07
2023-03-22T07:37:41.537Z,9.73
2023-03-22T07:40:40.364Z,10.00
2023-03-22T07:43:30.224Z,9.60
2023-03-22T07:46:31.579Z,9.90
2023-03-22T07:49:41.549Z,9.60
2023-03-22T07:52:35.698Z,9.03
2023-03-22T07:55:25.851Z,9.30
2023-03-22T07:58:15.321Z,9.20
2023-03-22T08:01:09.027Z,8.90
2023-03-22T08:04:16.732Z,8.90
2023-03-22T08:07:18.498Z,8.70
2023-03-22T08:10:08.855Z,8.70
2023-03-22T08:12:58.353Z,8.60
2023-03-22T08:15:49.226Z,8.43
2023-03-22T08:18:42.543Z,8.80
2023-03-22T08:21:33.208Z,8.53
2023-03-22T08:24:24.731Z,8.50
2023-03-22T08:27:28.507Z,8.60
2023-03-22T08:30:21.981Z,9.00
2023-03-22T08:33:11.392Z,8.63
2023-03-22T08:36:07.817Z,8.77
2023-03-22T08:39:03.201Z,8.40
2023-03-22T08:42:07.159Z,8.67
2023-03-22T08:44:57.870Z,8.60
2023-03-22T08:47:50.070Z,8.70
2023-03-22T08:50:42.514Z,8.70
2023-03-22T08:53:40.879Z,8.40
2023-03-22T08:56:50.240Z,8.80
2023-03-22T09:00:00.639Z,9.20
2023-03-22T09:03:13.094Z,8.50
2023-03-22T09:06:03.477Z,8.93
2023-03-22T09:08:58.383Z,8.60
2023-03-22T09:11:48.695Z,8.43
2023-03-22T09:14:38.156Z,8.43
2023-03-22T09:17:29.310Z,8.57
2023-03-22T09:20:19.346Z,9.00
2023-03-22T09:23:10.133Z,8.50
2023-03-22T09:26:02.484Z,8.40
2023-03-22T09:28:53.081Z,8.70
2023-03-22T09:31:42.509Z,8.60
2023-03-22T09:34:46.889Z,8.50
2023-03-22T09:37:36.618Z,8.17
2023-03-22T09:40:30.391Z,8.40
2023-03-22T09:43:21.287Z,8.33
2023-03-22T09:46:17.474Z,8.20
2023-03-22T09:49:13.647Z,8.40
2023-03-22T09:52:07.439Z,8.60
2023-03-22T09:54:56.816Z,8.47
2023-03-22T09:57:53.649Z,7.97
2023-03-22T10:00:48.933Z,8.13
2023-03-22T10:04:25.248Z,8.40
2023-03-22T10:07:27.491Z,8.40
2023-03-22T10:10:20.234Z,8.33
2023-03-22T10:13:19.810Z,8.50
2023-03-22T10:16:14.906Z,8.23
2023-03-22T10:19:13.812Z,8.23
2023-03-22T10:22:05.972Z,8.20
2023-03-22T10:24:57.710Z,8.30
2023-03-22T10:27:50.618Z,8.30
2023-03-22T10:30:42.439Z,8.30
2023-03-22T10:33:50.133Z,8.50
2023-03-22T10:36:42.674Z,8.80
2023-03-22T10:39:35.760Z,8.50
2023-03-22T10:42:29.725Z,8.57
2023-03-22T10:45:19.633Z,8.30
2023-03-22T10:48:18.027Z,8.30
2023-03-22T10:51:11.017Z,8.03
2023-03-22T10:54:02.947Z,8.00
2023-03-22T10:56:52.317Z,7.87
2023-03-22T10:59:51.148Z,7.97
2023-03-22T11:02:49.467Z,7.90
2023-03-22T11:05:39.012Z,8.00
2023-03-22T11:08:28.585Z,8.10
2023-03-22T11:11:23.361Z,8.03
2023-03-22T11:14:16.671Z,7.87
2023-03-22T11:17:14.638Z,8.10
2023-03-22T11:20:09.858Z,7.93
2023-03-22T11:23:05.280Z,8.10
2023-03-22T11:25:58.164Z,7.80
2023-03-22T11:28:51.743Z,8.10
2023-03-22T11:31:56.269Z,7.83
2023-03-22T11:34:47.469Z,8.03
2023-03-22T11:37:42.716Z,8.40
2023-03-22T11:40:36.173Z,8.50
2023-03-22T11:43:28.782Z,8.20
2023-03-22T11:46:20.012Z,8.47
2023-03-22T11:49:15.257Z,8.40
2023-03-22T11:52:13.950Z,23.80
2023-03-22T11:55:04.053Z,40.50
2023-03-22T11:57:56.980Z,37.93
2023-03-22T12:00:46.554Z,55.80
2023-03-22T12:03:39.836Z,45.93
2023-03-22T12:06:34.565Z,38.40
2023-03-22T12:09:43.128Z,24.33
2023-03-22T12:12:37.127Z,24.63
2023-03-22T12:15:30.800Z,21.40
2023-03-22T12:18:29.025Z,26.60
2023-03-22T12:21:18.379Z,32.13
2023-03-22T12:24:29.772Z,27.57
2023-03-22T12:27:24.444Z,24.10
2023-03-22T12:30:19.081Z,18.90
2023-03-22T12:33:13.409Z,25.00
2023-03-22T12:36:06.881Z,20.10
2023-03-22T12:38:58.930Z,18.53
2023-03-22T12:41:52.374Z,14.63
2023-03-22T12:44:55.529Z,9.00
2023-03-22T12:47:52.643Z,9.03
2023-03-22T12:50:48.647Z,8.87
2023-03-22T12:53:43.327Z,8.80
2023-03-22T12:56:39.541Z,8.40
2023-03-22T12:59:31.740Z,8.67
2023-03-22T13:02:27.841Z,8.40
2023-03-22T13:05:19.593Z,8.73
2023-03-22T13:08:10.277Z,8.50
2023-03-22T13:11:03.826Z,8.30
2023-03-22T13:13:53.296Z,8.60
2023-03-22T13:16:53.316Z,8.50
2023-03-22T13:19:54.592Z,8.60
2023-03-22T13:23:27.985Z,8.53
2023-03-22T13:26:18.027Z,8.67
2023-03-22T13:29:18.588Z,8.43
2023-03-22T13:32:30.180Z,8.50
2023-03-22T13:35:29.817Z,8.40
2023-03-22T13:38:23.919Z,8.70
2023-03-22T13:41:23.373Z,8.60
2023-03-22T13:44:26.968Z,8.47
2023-03-22T13:47:35.981Z,8.50
2023-03-22T13:50:30.797Z,8.57
2023-03-22T13:53:30.023Z,8.60
2023-03-22T13:56:35.346Z,8.53
2023-03-22T13:59:30.861Z,8.40
2023-03-22T14:02:27.858Z,8.40
2023-03-22T14:05:23.291Z,8.40
2023-03-22T14:08:22.937Z,8.50
2023-03-22T14:11:24.158Z,8.43
2023-03-22T14:14:18.444Z,8.60
2023-03-22T14:17:21.517Z,8.60
2023-03-22T14:20:19.190Z,8.70
